createdAt,value
2019-06-07T00:02:00.330Z,13.32
2019-06-07T00:05:05.495Z,13.29
2019-06-07T00:08:16.982Z,13.27
2019-06-07T00:11:20.299Z,13.28
2019-06-07T00:14:24.064Z,13.29
2019-06-07T00:17:29.105Z,13.26
2019-06-07T00:20:34.067Z,13.17
2019-06-07T00:23:39.479Z,13.15
2019-06-07T00:26:57.713Z,13.17
2019-06-07T00:29:51.417Z,13.19
2019-06-07T00:32:56.149Z,13.22
2019-06-07T00:36:00.902Z,13.19
2019-06-07T00:39:10.521Z,13.16
2019-06-07T00:42:18.624Z,13.15
2019-06-07T00:45:24.278Z,13.18
2019-06-07T00:48:32.711Z,13.13
2019-06-07T00:51:50.047Z,13.09
2019-06-07T00:54:41.987Z,13.11
2019-06-07T00:57:47.128Z,13.02
2019-06-07T01:00:51.895Z,13.02
2019-06-07T01:03:57.173Z,12.94
2019-06-07T01:07:02.087Z,12.91
2019-06-07T01:10:08.941Z,12.89
2019-06-07T01:13:15.474Z,12.84
2019-06-07T01:16:22.248Z,12.90
2019-06-07T01:19:27.894Z,12.93
2019-06-07T01:22:34.305Z,12.89
2019-06-07T01:25:39.425Z,12.90
2019-06-07T01:28:44.201Z,12.89
2019-06-07T01:31:49.251Z,12.82
2019-06-07T01:34:54.342Z,12.84
2019-06-07T01:37:59.106Z,12.83
2019-06-07T01:41:04.510Z,12.79
2019-06-07T01:44:09.293Z,12.79
2019-06-07T01:47:14.060Z,12.75
2019-06-07T01:50:22.593Z,12.74
2019-06-07T01:53:28.446Z,12.72
2019-06-07T01:56:32.936Z,12.72
2019-06-07T01:59:37.698Z,12.78
2019-06-07T02:02:42.952Z,12.81
2019-06-07T02:05:48.191Z,12.84
2019-06-07T02:08:53.283Z,12.83
2019-06-07T02:11:58.413Z,12.86
2019-06-07T02:15:04.004Z,12.89
2019-06-07T02:18:09.334Z,12.91
2019-06-07T02:21:14.092Z,12.93
2019-06-07T02:24:21.303Z,12.91
2019-06-07T02:27:26.085Z,12.94
2019-06-07T02:30:49.264Z,12.95
2019-06-07T02:33:40.517Z,13.00
2019-06-07T02:36:45.708Z,12.95
2019-06-07T02:39:50.754Z,12.88
2019-06-07T02:42:55.615Z,12.83
2019-06-07T02:46:23.913Z,12.87
2019-06-07T02:49:07.230Z,12.84
2019-06-07T02:52:12.053Z,12.89
2019-06-07T02:55:17.232Z,12.90
2019-06-07T02:58:21.993Z,12.89
2019-06-07T03:01:31.340Z,12.86
2019-06-07T03:04:41.504Z,12.79
2019-06-07T03:07:45.305Z,12.75
2019-06-07T03:10:51.103Z,12.76
2019-06-07T03:13:59.521Z,12.78
2019-06-07T03:17:12.698Z,12.76
2019-06-07T03:20:18.763Z,12.79
2019-06-07T03:23:26.310Z,12.89
2019-06-07T03:26:41.892Z,12.89
2019-06-07T03:29:41.170Z,12.86
2019-06-07T03:32:47.954Z,12.88
2019-06-07T03:35:51.057Z,12.86
2019-06-07T03:38:56.430Z,12.85
2019-06-07T03:42:06.485Z,12.89
2019-06-07T03:45:08.397Z,12.83
2019-06-07T03:48:13.483Z,12.77
2019-06-07T03:51:25.179Z,12.75
2019-06-07T03:54:24.945Z,12.66
2019-06-07T03:58:00.344Z,12.52
2019-06-07T04:00:42.595Z,12.55
2019-06-07T04:03:51.449Z,12.60
2019-06-07T04:06:51.464Z,12.62
2019-06-07T04:09:56.594Z,12.62
2019-06-07T04:13:01.419Z,12.57
2019-06-07T04:16:07.732Z,12.47
2019-06-07T04:19:12.823Z,12.49
2019-06-07T04:22:17.873Z,12.49
2019-06-07T04:25:23.227Z,12.55
2019-06-07T04:29:16.480Z,12.59
2019-06-07T04:31:36.957Z,12.68
2019-06-07T04:34:43.046Z,12.66
2019-06-07T04:37:48.551Z,12.71
2019-06-07T04:40:54.261Z,12.76
2019-06-07T04:44:00.104Z,12.76
2019-06-07T04:47:09.270Z,12.87
2019-06-07T04:50:14.491Z,12.96
2019-06-07T04:53:19.230Z,13.08
2019-06-07T04:56:24.428Z,13.14
2019-06-07T05:00:04.205Z,13.16
2019-06-07T05:02:40.301Z,13.22
2019-06-07T05:05:43.966Z,13.33
2019-06-07T05:08:49.197Z,13.45
2019-06-07T05:11:53.956Z,13.52
2019-06-07T05:14:58.867Z,13.48
2019-06-07T05:18:03.674Z,13.52
2019-06-07T05:21:08.751Z,13.68
2019-06-07T05:24:13.578Z,13.62
2019-06-07T05:27:18.478Z,13.70
2019-06-07T05:31:03.046Z,13.88
2019-06-07T05:33:43.589Z,13.99
2019-06-07T05:37:10.427Z,13.96
2019-06-07T05:39:56.250Z,14.01
2019-06-07T05:43:01.170Z,14.09
2019-06-07T05:46:06.002Z,14.14
2019-06-07T05:49:11.050Z,14.23
2019-06-07T05:52:16.448Z,14.29
2019-06-07T05:55:21.620Z,14.43
2019-06-07T05:58:26.773Z,14.46
2019-06-07T06:01:57.402Z,14.57
2019-06-07T06:04:40.277Z,14.68
2019-06-07T06:07:50.243Z,14.83
2019-06-07T06:10:51.376Z,14.88
2019-06-07T06:14:06.779Z,14.97
2019-06-07T06:17:03.097Z,14.97
2019-06-07T06:20:09.360Z,14.99
2019-06-07T06:23:14.308Z,15.06
2019-06-07T06:26:19.076Z,15.07
2019-06-07T06:29:24.221Z,15.22
2019-06-07T06:32:42.066Z,15.39
2019-06-07T06:35:37.554Z,15.43
2019-06-07T06:38:43.870Z,15.37
2019-06-07T06:42:01.007Z,15.44
2019-06-07T06:44:56.575Z,15.50
2019-06-07T06:48:02.077Z,15.66
2019-06-07T06:51:06.909Z,15.72
2019-06-07T06:54:11.728Z,15.75
2019-06-07T06:57:19.935Z,15.81
2019-06-07T07:00:50.287Z,15.81
2019-06-07T07:04:09.556Z,15.96
2019-06-07T07:06:55.354Z,16.17
2019-06-07T07:10:00.335Z,16.24
2019-06-07T07:13:05.947Z,16.27
2019-06-07T07:16:11.783Z,16.41
2019-06-07T07:19:16.653Z,16.47
2019-06-07T07:22:21.445Z,16.52
2019-06-07T07:25:26.422Z,16.81
2019-06-07T07:28:34.219Z,16.81
2019-06-07T07:31:39.222Z,16.87
2019-06-07T07:34:46.236Z,17.04
2019-06-07T07:37:57.044Z,17.28
2019-06-07T07:41:13.106Z,17.35
2019-06-07T07:44:07.289Z,17.16
2019-06-07T07:47:10.518Z,17.16
2019-06-07T07:50:15.698Z,17.33
2019-06-07T07:53:20.936Z,17.47
2019-06-07T07:56:25.883Z,17.57
2019-06-07T07:59:41.834Z,17.92
2019-06-07T08:02:37.235Z,18.11
2019-06-07T08:05:44.934Z,18.18
2019-06-07T08:08:49.095Z,18.33
2019-06-07T08:11:59.974Z,18.26
2019-06-07T08:15:03.656Z,18.54
2019-06-07T08:18:08.998Z,18.67
2019-06-07T08:21:24.847Z,18.87
2019-06-07T08:24:20.142Z,18.90
2019-06-07T08:27:26.754Z,18.95
2019-06-07T08:30:51.284Z,19.02
2019-06-07T08:33:38.885Z,19.08
2019-06-07T08:36:43.694Z,19.19
2019-06-07T08:39:50.354Z,19.39
2019-06-07T08:43:19.978Z,19.45
2019-06-07T08:46:07.476Z,19.51
2019-06-07T08:49:08.907Z,19.66
2019-06-07T08:52:13.964Z,19.70
2019-06-07T08:55:19.284Z,19.61
2019-06-07T08:58:24.505Z,19.71
2019-06-07T09:01:29.320Z,19.83
2019-06-07T09:04:35.271Z,20.04
2019-06-07T09:07:40.438Z,20.16
2019-06-07T09:10:45.270Z,20.28
2019-06-07T09:13:50.014Z,20.42
2019-06-07T09:17:00.315Z,20.48
2019-06-07T09:20:07.659Z,20.66
2019-06-07T09:23:16.275Z,20.87
2019-06-07T09:26:18.266Z,20.96
2019-06-07T09:29:21.656Z,21.02
2019-06-07T09:32:26.804Z,21.06
2019-06-07T09:35:32.029Z,20.88
2019-06-07T09:38:38.192Z,21.05
2019-06-07T09:41:49.734Z,21.35
2019-06-07T09:44:50.159Z,21.63
2019-06-07T09:47:54.989Z,21.69
2019-06-07T09:51:02.158Z,21.77
2019-06-07T09:54:08.739Z,22.03
2019-06-07T09:57:17.342Z,22.25
2019-06-07T10:00:40.091Z,22.41
2019-06-07T10:03:26.225Z,22.46
2019-06-07T10:06:34.128Z,22.58
2019-06-07T10:10:11.620Z,22.77
2019-06-07T10:12:45.790Z,22.72
2019-06-07T10:15:53.614Z,22.86
2019-06-07T10:18:59.197Z,23.00
2019-06-07T10:22:05.647Z,23.09
2019-06-07T10:25:11.202Z,23.28
2019-06-07T10:28:15.973Z,23.37
2019-06-07T10:31:20.802Z,23.65
2019-06-07T10:34:25.609Z,23.72
2019-06-07T10:37:31.007Z,23.75
2019-06-07T10:40:35.786Z,23.68
2019-06-07T10:43:40.520Z,23.66
2019-06-07T10:46:45.862Z,23.61
2019-06-07T10:49:50.658Z,23.84
2019-06-07T10:52:55.711Z,23.86
2019-06-07T10:56:00.726Z,23.90
2019-06-07T10:59:06.990Z,24.14
2019-06-07T11:02:13.928Z,24.25
2019-06-07T11:05:19.415Z,24.34
2019-06-07T11:08:24.200Z,24.48
2019-06-07T11:11:28.985Z,24.58
2019-06-07T11:14:34.084Z,24.64
2019-06-07T11:17:38.951Z,24.74
2019-06-07T11:20:43.702Z,24.97
2019-06-07T11:23:48.438Z,24.98
2019-06-07T11:26:53.235Z,25.00
2019-06-07T11:29:58.008Z,25.08
2019-06-07T11:33:02.730Z,25.29
2019-06-07T11:36:08.469Z,25.36
2019-06-07T11:39:13.249Z,25.56
2019-06-07T11:42:20.041Z,25.50
2019-06-07T11:45:25.183Z,25.49
2019-06-07T11:48:30.306Z,25.47
2019-06-07T11:51:35.394Z,25.61
2019-06-07T11:54:40.142Z,25.91
2019-06-07T11:57:45.283Z,26.09
2019-06-07T12:00:50.402Z,26.15
2019-06-07T12:03:58.520Z,26.26
2019-06-07T12:07:03.057Z,26.30
2019-06-07T12:10:08.692Z,26.53
2019-06-07T12:13:15.375Z,26.62
2019-06-07T12:16:20.321Z,26.57
2019-06-07T12:19:25.152Z,26.71
2019-06-07T12:22:30.328Z,26.91
2019-06-07T12:25:35.110Z,26.95
2019-06-07T12:28:39.873Z,26.72
2019-06-07T12:31:45.185Z,26.67
2019-06-07T12:34:51.445Z,26.90
2019-06-07T12:37:56.235Z,26.94
2019-06-07T12:41:01.025Z,26.96
2019-06-07T12:44:06.293Z,27.05
2019-06-07T12:47:11.087Z,27.18
2019-06-07T12:50:17.449Z,27.11
2019-06-07T12:53:27.532Z,27.31
2019-06-07T12:56:28.981Z,27.47
2019-06-07T12:59:33.821Z,27.53
2019-06-07T13:02:38.724Z,27.78
2019-06-07T13:05:43.470Z,27.50
2019-06-07T13:08:48.214Z,27.68
2019-06-07T13:11:53.089Z,27.81
2019-06-07T13:14:57.830Z,27.97
2019-06-07T13:18:02.983Z,28.17
2019-06-07T13:21:08.065Z,28.33
2019-06-07T13:24:12.836Z,28.16
2019-06-07T13:27:18.296Z,28.16
2019-06-07T13:30:25.400Z,28.25
2019-06-07T13:33:37.301Z,28.69
2019-06-07T13:36:37.367Z,28.71
2019-06-07T13:39:43.041Z,28.88
2019-06-07T13:42:47.812Z,28.96
2019-06-07T13:45:52.872Z,29.08
2019-06-07T13:48:57.932Z,29.18
2019-06-07T13:52:02.986Z,29.22
2019-06-07T13:55:09.704Z,29.26
2019-06-07T13:58:14.502Z,28.73
2019-06-07T14:01:20.325Z,28.73
2019-06-07T14:04:26.916Z,29.13
2019-06-07T14:07:31.716Z,29.30
2019-06-07T14:10:37.101Z,29.63
2019-06-07T14:13:41.842Z,29.88
2019-06-07T14:16:46.620Z,30.02
2019-06-07T14:19:51.411Z,30.19
2019-06-07T14:22:56.687Z,30.26
2019-06-07T14:26:01.449Z,30.13
2019-06-07T14:29:06.222Z,30.13
2019-06-07T14:32:11.064Z,30.33
2019-06-07T14:35:17.036Z,30.49
2019-06-07T14:38:23.080Z,30.60
2019-06-07T14:41:29.433Z,30.66
2019-06-07T14:44:34.726Z,30.64
2019-06-07T14:47:39.581Z,30.25
2019-06-07T14:50:45.735Z,30.41
2019-06-07T14:53:50.804Z,30.22
2019-06-07T14:56:55.582Z,30.59
2019-06-07T15:00:00.311Z,30.84
2019-06-07T15:03:05.569Z,30.72
2019-06-07T15:06:10.618Z,30.14
2019-06-07T15:09:15.424Z,29.74
2019-06-07T15:12:24.951Z,29.52
2019-06-07T15:15:28.356Z,29.21
2019-06-07T15:18:33.848Z,29.38
2019-06-07T15:21:39.315Z,29.22
2019-06-07T15:24:44.038Z,29.05
2019-06-07T15:27:50.078Z,29.11
2019-06-07T15:30:54.881Z,29.26
2019-06-07T15:33:59.695Z,29.06
2019-06-07T15:37:04.569Z,28.84
2019-06-07T15:40:10.106Z,28.69
2019-06-07T15:43:14.865Z,28.59
2019-06-07T15:46:19.719Z,28.30
2019-06-07T15:49:24.769Z,28.03
2019-06-07T15:52:31.354Z,27.57
2019-06-07T15:55:39.584Z,26.55
2019-06-07T15:58:43.355Z,25.60
2019-06-07T16:01:48.159Z,25.31
2019-06-07T16:04:53.245Z,25.16
2019-06-07T16:07:58.057Z,25.17
2019-06-07T16:11:02.830Z,25.12
2019-06-07T16:14:07.910Z,25.07
2019-06-07T16:17:12.969Z,25.15
2019-06-07T16:20:18.207Z,25.13
2019-06-07T16:23:23.439Z,24.89
2019-06-07T16:26:28.802Z,24.29
2019-06-07T16:29:34.666Z,23.66
2019-06-07T16:32:39.648Z,23.10
2019-06-07T16:35:45.390Z,22.93
2019-06-07T16:38:51.915Z,22.52
2019-06-07T16:41:56.659Z,22.03
2019-06-07T16:45:01.511Z,22.27
2019-06-07T16:48:06.789Z,22.43
2019-06-07T16:51:11.564Z,22.91
2019-06-07T16:54:16.720Z,23.02
2019-06-07T16:57:21.575Z,23.12
2019-06-07T17:00:27.222Z,23.35
2019-06-07T17:03:32.316Z,23.43
2019-06-07T17:06:37.614Z,23.46
2019-06-07T17:09:45.372Z,23.54
2019-06-07T17:12:49.349Z,23.45
2019-06-07T17:15:54.117Z,23.06
2019-06-07T17:18:58.873Z,22.21
2019-06-07T17:22:03.688Z,22.00
2019-06-07T17:25:10.374Z,21.41
2019-06-07T17:28:15.509Z,20.69
2019-06-07T17:31:20.569Z,20.60
2019-06-07T17:34:25.985Z,20.48
2019-06-07T17:37:30.871Z,20.40
2019-06-07T17:40:36.100Z,20.46
2019-06-07T17:43:53.019Z,19.88
2019-06-07T17:46:49.772Z,19.86
2019-06-07T17:49:55.011Z,19.62
2019-06-07T17:52:59.814Z,19.72
2019-06-07T17:56:05.042Z,19.71
2019-06-07T17:59:10.391Z,19.66
2019-06-07T18:02:15.856Z,19.52
2019-06-07T18:05:21.114Z,19.50
2019-06-07T18:08:26.186Z,19.39
2019-06-07T18:11:31.277Z,19.20
2019-06-07T18:14:37.440Z,19.42
2019-06-07T18:17:42.556Z,19.34
2019-06-07T18:20:47.467Z,19.36
2019-06-07T18:23:52.996Z,19.31
2019-06-07T18:26:58.929Z,19.36
2019-06-07T18:30:11.213Z,19.20
2019-06-07T18:33:11.194Z,19.27
2019-06-07T18:36:17.299Z,19.11
2019-06-07T18:39:22.254Z,18.68
2019-06-07T18:42:27.359Z,18.37
2019-06-07T18:45:32.627Z,18.43
2019-06-07T18:48:37.513Z,18.40
2019-06-07T18:51:42.419Z,18.26
2019-06-07T18:54:48.736Z,18.17
2019-06-07T18:57:54.488Z,17.79
2019-06-07T19:00:59.374Z,17.57
2019-06-07T19:04:05.196Z,17.54
2019-06-07T19:07:10.534Z,17.51
2019-06-07T19:10:16.018Z,17.45
2019-06-07T19:13:21.063Z,17.56
2019-06-07T19:16:25.861Z,17.56
2019-06-07T19:19:30.719Z,17.62
2019-06-07T19:22:35.541Z,17.70
2019-06-07T19:25:40.599Z,17.90
2019-06-07T19:28:46.491Z,17.73
2019-06-07T19:31:51.251Z,17.68
2019-06-07T19:34:57.459Z,17.50
2019-06-07T19:38:02.550Z,17.62
2019-06-07T19:41:19.357Z,17.71
2019-06-07T19:44:14.718Z,17.78
2019-06-07T19:47:19.576Z,17.88
2019-06-07T19:50:24.816Z,17.80
2019-06-07T19:53:29.732Z,17.80
2019-06-07T19:56:34.582Z,17.88
2019-06-07T19:59:39.760Z,17.79
2019-06-07T20:02:45.214Z,17.83
2019-06-07T20:05:50.208Z,17.88
2019-06-07T20:08:54.996Z,17.77
2019-06-07T20:12:00.761Z,17.66
2019-06-07T20:15:27.382Z,17.70
2019-06-07T20:18:12.908Z,17.78
2019-06-07T20:21:17.737Z,17.65
2019-06-07T20:24:27.353Z,17.59
2019-06-07T20:27:29.645Z,17.56
2019-06-07T20:30:34.867Z,17.56
2019-06-07T20:33:39.831Z,17.46
2019-06-07T20:36:45.906Z,17.40
2019-06-07T20:39:51.282Z,17.50
2019-06-07T20:42:57.362Z,17.44
2019-06-07T20:46:04.748Z,17.40
2019-06-07T20:49:09.177Z,17.51
2019-06-07T20:52:14.017Z,17.31
2019-06-07T20:55:20.296Z,17.27
2019-06-07T20:58:25.267Z,17.20
2019-06-07T21:01:30.326Z,17.21
2019-06-07T21:04:35.195Z,17.18
2019-06-07T21:07:40.151Z,17.33
2019-06-07T21:10:44.958Z,17.30
2019-06-07T21:13:50.092Z,17.21
2019-06-07T21:16:55.069Z,17.24
2019-06-07T21:20:00.513Z,17.25
2019-06-07T21:23:06.886Z,17.30
2019-06-07T21:26:12.498Z,17.30
2019-06-07T21:29:19.370Z,17.21
2019-06-07T21:32:23.996Z,17.18
2019-06-07T21:35:28.906Z,17.02
2019-06-07T21:38:33.832Z,16.94
2019-06-07T21:41:38.695Z,16.85
2019-06-07T21:44:43.737Z,16.76
2019-06-07T21:47:48.899Z,16.62
2019-06-07T21:50:54.038Z,16.64
2019-06-07T21:53:58.858Z,16.65
2019-06-07T21:57:04.674Z,16.62
2019-06-07T22:00:14.248Z,16.64
2019-06-07T22:03:20.989Z,16.64
2019-06-07T22:06:25.963Z,16.68
2019-06-07T22:09:30.839Z,16.56
2019-06-07T22:12:35.778Z,16.51
2019-06-07T22:15:40.914Z,16.53
2019-06-07T22:18:45.685Z,16.51
2019-06-07T22:22:02.305Z,16.46
2019-06-07T22:24:57.256Z,16.40
2019-06-07T22:28:02.322Z,16.33
2019-06-07T22:31:08.521Z,16.33
2019-06-07T22:34:15.086Z,16.43
2019-06-07T22:37:23.443Z,16.46
2019-06-07T22:40:26.803Z,16.54
2019-06-07T22:43:31.719Z,16.61
2019-06-07T22:46:37.866Z,16.63
2019-06-07T22:49:42.757Z,16.58
2019-06-07T22:52:47.553Z,16.54
2019-06-07T22:55:58.974Z,16.52
2019-06-07T22:59:04.328Z,16.54
2019-06-07T23:02:10.403Z,16.45
2019-06-07T23:05:15.247Z,16.46
2019-06-07T23:08:20.077Z,16.51
2019-06-07T23:11:25.302Z,16.52
2019-06-07T23:14:30.412Z,16.47
2019-06-07T23:17:35.303Z,16.43
2019-06-07T23:20:40.115Z,16.41
2019-06-07T23:23:45.833Z,16.43
2019-06-07T23:26:50.863Z,16.48
2019-06-07T23:29:55.715Z,16.48
2019-06-07T23:33:00.578Z,16.46
2019-06-07T23:36:05.749Z,16.46
2019-06-07T23:39:10.942Z,16.43
2019-06-07T23:42:15.763Z,16.38
2019-06-07T23:45:21.703Z,16.34
2019-06-07T23:48:27.031Z,16.36
2019-06-07T23:51:31.816Z,16.33
2019-06-07T23:54:36.809Z,16.37
2019-06-07T23:57:41.539Z,16.38
